DW0683 Weather Reports


Display with metric or nautical units.
time (UTC)temp
F
wind
direction
speed
MPH
gust
MPH
rain 1hr
in
rain 24hr
in
rain mn
in
humidity
%
barometer
mb
20200408190820 86 303 0.0 4.0 0.00 0.00 0.00 53 1014.1
20200408183817 86 265 0.0 7.0 0.00 0.00 0.00 51 1014.4
20200408180834 85 324 0.0 0.0 0.00 0.00 0.00 53 1014.8
20200408173831 85 320 0.0 3.0 0.00 0.00 0.00 54 1015.1
20200408170830 85 250 1.0 9.0 0.00 0.00 0.00 55 1015.5
20200408163820 84 299 0.0 5.0 0.00 0.00 0.00 55 1015.6
20200408160818 84 311 0.0 4.0 0.00 0.00 0.00 57 1016.1
20200408153834 83 284 0.0 2.0 0.00 0.00 0.00 58 1016.3
20200408150831 82 289 0.0 3.0 0.00 0.00 0.00 59 1016.2
20200408143828 80 304 0.0 0.0 0.00 0.00 0.00 60 1016.2
20200408140825 76 246 0.0 1.0 0.00 0.00 0.00 68 1016.1
20200408133837 72 265 0.0 2.0 0.00 0.00 0.00 78 1015.9
20200408130835 70 9 0.0 0.0 0.00 0.00 0.00 79 1015.3
20200408123830 67 9 0.0 0.0 0.00 0.00 0.00 79 1015.3
20200408120828 66 9 0.0 0.0 0.00 0.00 0.00 79 1015.2
20200408113824 64 9 0.0 0.0 0.00 0.00 0.00 78 1015.3
20200408110821 64 5 0.0 0.0 0.00 0.00 0.00 78 1014.9
20200408103817 65 262 0.0 0.0 0.00 0.00 0.00 78 1014.7
20200408100831 65 262 0.0 0.0 0.00 0.00 0.00 78 1014.6
20200408093827 66 262 0.0 0.0 0.00 0.00 0.00 78 1014.5
20200408090823 66 262 0.0 0.0 0.00 0.00 0.00 78 1014.2
20200408083820 67 262 0.0 0.0 0.00 0.00 0.00 78 1014.2
20200408080818 66 262 0.0 0.0 0.00 0.00 0.00 78 1014.1
20200408073829 66 26 0.0 0.0 0.00 0.00 0.00 77 1014.2
20200408070828 67 26 0.0 0.0 0.00 0.00 0.00 77 1014.5
20200408063823 67 26 0.0 0.0 0.00 0.00 0.00 76 1015.1
20200408060822 68 26 0.0 0.0 0.00 0.00 0.00 76 1015.3
20200408053819 68 26 0.0 0.0 0.00 0.00 0.00 76 1016.0
20200408050817 68 26 0.0 0.0 0.00 0.00 0.00 73 1016.7
20200408043838 70 26 0.0 0.0 0.00 0.00 0.00 70 1016.7
20200408040823 70 26 0.0 0.0 0.00 0.00 0.00 69 1016.8
20200408033820 71 26 0.0 0.0 0.00 0.00 0.00 67 1017.0
20200408030826 72 26 0.0 0.0 0.00 0.00 0.00 67 1017.0
20200408023830 72 27 0.0 0.0 0.00 0.00 0.00 67 1017.1
20200408020828 73 270 0.0 0.0 0.00 0.00 0.00 67 1017.1
20200408013820 73 271 0.0 0.0 0.00 0.00 0.00 67 1017.1
20200408010818 74 271 0.0 0.0 0.00 0.00 0.00 67 1016.7
20200408003834 75 272 0.0 0.0 0.00 0.00 0.00 66 1016.4
20200408000831 76 271 0.0 0.0 0.00 0.00 0.00 63 1016.3
20200407233828 77 321 0.0 0.0 0.00 0.00 0.00 61 1016.1
20200407230820 79 288 0.0 0.0 0.00 0.00 0.00 59 1015.9
20200407223836 80 236 0.0 0.0 0.00 0.00 0.00 56 1016.0
20200407220833 83 251 0.0 4.0 0.00 0.00 0.00 51 1015.7
20200407213830 84 288 0.0 7.0 0.00 0.00 0.00 52 1015.6
20200407210827 84 229 0.0 2.0 0.00 0.00 0.00 53 1015.9
20200407203823 85 275 0.0 2.0 0.00 0.00 0.00 50 1016.0
20200407200817 85 262 0.0 7.0 0.00 0.00 0.00 49 1016.1
20200407193833 86 239 0.0 7.0 0.00 0.00 0.00 48 1016.1